Time;durP1;ratioP1;P1;durP2;ratioP2;P2;SDS_P1;SDS_P2;PMS_P1;PMS_P2;Temp;Humidity;BMP_temperature;BMP_pressure;BME280_temperature;BME280_humidity;BME280_pressure;Samples;Min_cycle;Max_cycle;Signal;HPM_P1;HPM_P2
2024/03/26 00:00:10;;;;;;;;;;;;;;;;;;4956109;28;89856;-72
2024/03/26 00:02:35;;;;;;;;;;;;;;;;;;4967323;28;89050;-74
2024/03/26 00:05:01;;;;;;;;;;;;;;;;;;4967082;28;89736;-75
2024/03/26 00:07:26;;;;;;;;;;;;;;;;;;4966467;28;89229;-73
2024/03/26 00:09:51;;;;;;;;;;;;;;;;;;4966335;28;89332;-74
2024/03/26 00:12:16;;;;;;;;;;;;;;;;;;4966135;28;90090;-73
2024/03/26 00:14:41;;;;;;;;;;;;;;;;;;4962126;28;89526;-73
2024/03/26 00:17:07;;;;;;;;;;;;;;;;;;4958076;28;89757;-72
2024/03/26 00:19:32;;;;;;;;;;;;;;;;;;4967145;28;90653;-74
2024/03/26 00:21:57;;;;;;;;;;;;;;;;;;4964305;28;89399;-73
2024/03/26 00:24:23;;;;;;;;;;;;;;;;;;4964723;28;92646;-73
2024/03/26 00:26:48;;;;;;;;;;;;;;;;;;4964086;28;90265;-74
2024/03/26 00:29:13;;;;;;;;;;;;;;;;;;4964459;28;89629;-74
2024/03/26 00:31:39;;;;;;;;;;;;;;;;;;4973984;28;91913;-73
2024/03/26 00:34:04;;;;;;;;;;;;;;;;;;4962645;28;92064;-74
2024/03/26 00:36:30;;;;;;;;;;;;;;;;;;4963826;28;89798;-73
2024/03/26 00:38:56;;;;;;;;;;;;;;;;;;4961244;28;89771;-73
2024/03/26 00:41:21;;;;;;;;;;;;;;;;;;4967129;28;89210;-72
2024/03/26 00:43:46;;;;;;;;;;;;;;;;;;4962687;28;91213;-74
2024/03/26 00:46:12;;;;;;;;;;;;;;;;;;4962525;28;89787;-74
2024/03/26 00:48:37;;;;;;;;;;;;;;;;;;4963203;28;89438;-74
2024/03/26 00:51:02;;;;;;;;;;;;;;;;;;4965693;28;89681;-73
2024/03/26 00:53:27;;;;;;;;;;;;;;;;;;4966262;28;89447;-74
2024/03/26 00:55:53;;;;;;;;;;;;;;;;;;4964867;28;89469;-71
2024/03/26 00:58:18;;;;;;;;;;;;;;;;;;4965296;28;90367;-71
2024/03/26 01:00:43;;;;;;;;;;;;;;;;;;4965859;28;89296;-73
2024/03/26 01:03:08;;;;;;;;;;;;;;;;;;4969014;28;89257;-71
2024/03/26 01:05:34;;;;;;;;;;;;;;;;;;4965645;28;89637;-71
2024/03/26 01:07:59;;;;;;;;;;;;;;;;;;4965562;28;90551;-71
2024/03/26 01:10:24;;;;;;;;;;;;;;;;;;4964311;28;92933;-71
2024/03/26 01:12:50;;;;;;;;;;;;;;;;;;4965625;28;90596;-70
2024/03/26 01:15:15;;;;;;;;;;;;;;;;;;4965075;28;89416;-71
2024/03/26 01:17:40;;;;;;;;;;;;;;;;;;4966686;28;89481;-70
2024/03/26 01:20:06;;;;;;;;;;;;;;;;;;4965843;28;89435;-73
2024/03/26 01:22:31;;;;;;;;;;;;;;;;;;4964453;28;90370;-73
2024/03/26 01:24:56;;;;;;;;;;;;;;;;;;4968166;28;90729;-74
2024/03/26 01:27:21;;;;;;;;;;;;;;;;;;4965651;28;89853;-74
2024/03/26 01:29:47;;;;;;;;;;;;;;;;;;4965457;28;90125;-73
2024/03/26 01:32:12;;;;;;;;;;;;;;;;;;4965502;28;89691;-72
2024/03/26 01:34:37;;;;;;;;;;;;;;;;;;4965515;28;89736;-74
2024/03/26 01:37:02;;;;;;;;;;;;;;;;;;4965654;28;89570;-74
2024/03/26 01:39:27;;;;;;;;;;;;;;;;;;4965693;28;89951;-74
2024/03/26 01:41:53;;;;;;;;;;;;;;;;;;4966102;28;90020;-73
2024/03/26 01:44:18;;;;;;;;;;;;;;;;;;4965583;28;89747;-73
2024/03/26 01:46:43;;;;;;;;;;;;;;;;;;4969168;28;89661;-74
2024/03/26 01:49:09;;;;;;;;;;;;;;;;;;4965491;28;89768;-73
2024/03/26 01:51:36;;;;;;;;;;;;;;;;;;4965800;28;89130;-74
2024/03/26 01:54:02;;;;;;;;;;;;;;;;;;4965473;28;90699;-74
2024/03/26 01:56:28;;;;;;;;;;;;;;;;;;4965797;28;89782;-74
2024/03/26 01:58:54;;;;;;;;;;;;;;;;;;4965613;28;89271;-73
2024/03/26 02:01:19;;;;;;;;;;;;;;;;;;4965268;28;89098;-73
2024/03/26 02:03:45;;;;;;;;;;;;;;;;;;4965170;28;89405;-73
2024/03/26 02:06:10;;;;;;;;;;;;;;;;;;4968174;28;89802;-70
2024/03/26 02:08:35;;;;;;;;;;;;;;;;;;4967887;28;89350;-74
2024/03/26 02:11:01;;;;;;;;;;;;;;;;;;4968913;28;89385;-74
2024/03/26 02:13:26;;;;;;;;;;;;;;;;;;4968455;28;89468;-73
2024/03/26 02:15:51;;;;;;;;;;;;;;;;;;4968133;28;89011;-72
2024/03/26 02:18:16;;;;;;;;;;;;;;;;;;4968614;28;89337;-71
2024/03/26 02:20:42;;;;;;;;;;;;;;;;;;4968286;28;89479;-73
2024/03/26 02:23:07;;;;;;;;;;;;;;;;;;4967965;28;89438;-73
2024/03/26 02:25:32;;;;;;;;;;;;;;;;;;4967670;28;89705;-74
2024/03/26 02:27:57;;;;;;;;;;;;;;;;;;4971236;28;90112;-74
2024/03/26 02:30:22;;;;;;;;;;;;;;;;;;4967981;28;90102;-71
2024/03/26 02:32:48;;;;;;;;;;;;;;;;;;4968279;28;90270;-73
2024/03/26 02:35:13;;;;;;;;;;;;;;;;;;4968490;28;90249;-71
2024/03/26 02:37:38;;;;;;;;;;;;;;;;;;4985401;28;90065;-71
2024/03/26 02:40:04;;;;;;;;;;;;;;;;;;4987886;28;89576;-72
2024/03/26 02:42:29;;;;;;;;;;;;;;;;;;4987259;28;89679;-72
2024/03/26 02:44:54;;;;;;;;;;;;;;;;;;4987027;28;89406;-70
2024/03/26 02:47:19;;;;;;;;;;;;;;;;;;4987946;28;89097;-70
2024/03/26 02:49:45;;;;;;;;;;;;;;;;;;4989503;28;92605;-70
2024/03/26 02:52:10;;;;;;;;;;;;;;;;;;4987534;28;89794;-70
2024/03/26 02:54:35;;;;;;;;;;;;;;;;;;4988220;28;89695;-73
2024/03/26 02:57:00;;;;;;;;;;;;;;;;;;4972777;28;89830;-73
2024/03/26 02:59:25;;;;;;;;;;;;;;;;;;4967373;28;89789;-74
2024/03/26 03:01:51;;;;;;;;;;;;;;;;;;4967324;28;90663;-73
2024/03/26 03:04:16;;;;;;;;;;;;;;;;;;4968185;28;89659;-72
2024/03/26 03:06:41;;;;;;;;;;;;;;;;;;4968144;28;90245;-74
2024/03/26 03:09:07;;;;;;;;;;;;;;;;;;4966623;28;90884;-74
2024/03/26 03:11:33;;;;;;;;;;;;;;;;;;4971164;28;89351;-73
2024/03/26 03:13:58;;;;;;;;;;;;;;;;;;4965696;28;92331;-74
2024/03/26 03:16:23;;;;;;;;;;;;;;;;;;4963797;28;92099;-74
2024/03/26 03:18:48;;;;;;;;;;;;;;;;;;4947841;28;89303;-72
2024/03/26 03:21:13;;;;;;;;;;;;;;;;;;4946544;28;90869;-70
2024/03/26 03:23:39;;;;;;;;;;;;;;;;;;4951226;28;90277;-73
2024/03/26 03:26:04;;;;;;;;;;;;;;;;;;4967154;28;89658;-73
2024/03/26 03:28:29;;;;;;;;;;;;;;;;;;4966044;28;92169;-73
2024/03/26 03:30:55;;;;;;;;;;;;;;;;;;4967105;28;89949;-74
2024/03/26 03:33:20;;;;;;;;;;;;;;;;;;5002746;28;90513;-74
2024/03/26 03:35:45;;;;;;;;;;;;;;;;;;4967202;28;89887;-74
2024/03/26 03:38:11;;;;;;;;;;;;;;;;;;4967506;28;89784;-73
2024/03/26 03:40:36;;;;;;;;;;;;;;;;;;4967714;28;90305;-74
2024/03/26 03:43:01;;;;;;;;;;;;;;;;;;4967931;28;89685;-73
2024/03/26 03:45:28;;;;;;;;;;;;;;;;;;4967463;28;89591;-74
2024/03/26 03:47:53;;;;;;;;;;;;;;;;;;4967930;28;89756;-74
2024/03/26 03:50:18;;;;;;;;;;;;;;;;;;4962543;28;89292;-73
2024/03/26 03:52:44;;;;;;;;;;;;;;;;;;4966737;28;89500;-71
2024/03/26 03:55:09;;;;;;;;;;;;;;;;;;4969622;28;89737;-72
2024/03/26 03:57:34;;;;;;;;;;;;;;;;;;4966117;28;89990;-73
2024/03/26 04:00:00;;;;;;;;;;;;;;;;;;4967537;28;90227;-73
2024/03/26 04:02:25;;;;;;;;;;;;;;;;;;4966928;28;90105;-73
2024/03/26 04:04:51;;;;;;;;;;;;;;;;;;4967965;28;89486;-74
2024/03/26 04:07:16;;;;;;;;;;;;;;;;;;4968142;28;89749;-74
2024/03/26 04:09:41;;;;;;;;;;;;;;;;;;4966941;28;89264;-72
2024/03/26 04:12:06;;;;;;;;;;;;;;;;;;4966566;28;89365;-71
2024/03/26 04:14:31;;;;;;;;;;;;;;;;;;4969322;28;89520;-71
2024/03/26 04:16:57;;;;;;;;;;;;;;;;;;4966582;28;89052;-70
2024/03/26 04:19:22;;;;;;;;;;;;;;;;;;4966389;28;90031;-71
2024/03/26 04:21:47;;;;;;;;;;;;;;;;;;4966292;28;89854;-70
2024/03/26 04:24:12;;;;;;;;;;;;;;;;;;4966099;28;89731;-72
2024/03/26 04:26:38;;;;;;;;;;;;;;;;;;4966362;28;90212;-71
2024/03/26 04:29:03;;;;;;;;;;;;;;;;;;4965421;28;92371;-71
2024/03/26 04:31:28;;;;;;;;;;;;;;;;;;4998286;28;90065;-73
2024/03/26 04:33:53;;;;;;;;;;;;;;;;;;4966887;28;90047;-73
2024/03/26 04:36:19;;;;;;;;;;;;;;;;;;4969387;28;89610;-73
2024/03/26 04:38:44;;;;;;;;;;;;;;;;;;4965861;28;89641;-72
2024/03/26 04:41:09;;;;;;;;;;;;;;;;;;4969330;28;89997;-73
2024/03/26 04:43:34;;;;;;;;;;;;;;;;;;4979729;28;89181;-73
2024/03/26 04:46:00;;;;;;;;;;;;;;;;;;4974117;28;89645;-72
2024/03/26 04:48:25;;;;;;;;;;;;;;;;;;4973411;28;90774;-74
2024/03/26 04:50:51;;;;;;;;;;;;;;;;;;4967300;28;89508;-73
2024/03/26 04:53:16;;;;;;;;;;;;;;;;;;4971541;28;89723;-72
2024/03/26 04:55:41;;;;;;;;;;;;;;;;;;4975402;28;89310;-73
2024/03/26 04:58:06;;;;;;;;;;;;;;;;;;4977493;28;89641;-73
2024/03/26 05:00:32;;;;;;;;;;;;;;;;;;4978787;28;89207;-72
2024/03/26 05:02:57;;;;;;;;;;;;;;;;;;4978759;28;89704;-73
2024/03/26 05:05:22;;;;;;;;;;;;;;;;;;4973429;28;89756;-74
2024/03/26 05:07:48;;;;;;;;;;;;;;;;;;4972391;28;89697;-74
2024/03/26 05:10:13;;;;;;;;;;;;;;;;;;4979720;28;89551;-74
2024/03/26 05:12:39;;;;;;;;;;;;;;;;;;4972169;28;89753;-70
2024/03/26 05:15:04;;;;;;;;;;;;;;;;;;4973618;28;90708;-74
2024/03/26 05:17:30;;;;;;;;;;;;;;;;;;4969955;28;91216;-71
2024/03/26 05:19:57;;;;;;;;;;;;;;;;;;4975902;28;90056;-73
2024/03/26 05:22:22;;;;;;;;;;;;;;;;;;4972198;28;89707;-71
2024/03/26 05:24:47;;;;;;;;;;;;;;;;;;4972032;28;89787;-73
2024/03/26 05:27:12;;;;;;;;;;;;;;;;;;4972747;28;89554;-73
2024/03/26 05:29:38;;;;;;;;;;;;;;;;;;4973129;28;89416;-72
2024/03/26 05:32:04;;;;;;;;;;;;;;;;;;4973176;28;91159;-71
2024/03/26 05:34:29;;;;;;;;;;;;;;;;;;4971902;28;90373;-74
2024/03/26 05:36:54;;;;;;;;;;;;;;;;;;4971974;28;89411;-71
2024/03/26 05:39:20;;;;;;;;;;;;;;;;;;4982197;28;90075;-73
2024/03/26 05:41:45;;;;;;;;;;;;;;;;;;4975099;28;89723;-73
2024/03/26 05:44:10;;;;;;;;;;;;;;;;;;4972889;28;89870;-72
2024/03/26 05:46:36;;;;;;;;;;;;;;;;;;4976609;28;90322;-73
2024/03/26 05:49:01;;;;;;;;;;;;;;;;;;4973455;28;89187;-73
2024/03/26 05:51:26;;;;;;;;;;;;;;;;;;4973791;28;90398;-72
2024/03/26 05:53:52;;;;;;;;;;;;;;;;;;4971596;28;89810;-72
2024/03/26 05:56:17;;;;;;;;;;;;;;;;;;4974376;28;89280;-72
2024/03/26 05:58:42;;;;;;;;;;;;;;;;;;4972546;28;89530;-73
2024/03/26 06:01:08;;;;;;;;;;;;;;;;;;4973075;28;89457;-71
2024/03/26 06:03:35;;;;;;;;;;;;;;;;;;4975715;28;89782;-71
2024/03/26 06:06:00;;;;;;;;;;;;;;;;;;4971712;28;91482;-69
2024/03/26 06:08:25;;;;;;;;;;;;;;;;;;4972218;28;89746;-73
2024/03/26 06:10:50;;;;;;;;;;;;;;;;;;4973909;28;89525;-73
2024/03/26 06:13:16;;;;;;;;;;;;;;;;;;5005484;28;90421;-73
2024/03/26 06:15:41;;;;;;;;;;;;;;;;;;4973191;28;89597;-72
2024/03/26 06:18:06;;;;;;;;;;;;;;;;;;4973742;28;89892;-73
2024/03/26 06:20:31;;;;;;;;;;;;;;;;;;4972269;28;89347;-73
2024/03/26 06:22:56;;;;;;;;;;;;;;;;;;4974386;28;89172;-73
2024/03/26 06:25:22;;;;;;;;;;;;;;;;;;4973267;28;89271;-70
2024/03/26 06:27:47;;;;;;;;;;;;;;;;;;4972478;28;89373;-71
2024/03/26 06:30:13;;;;;;;;;;;;;;;;;;5004851;28;93805;-72
2024/03/26 06:32:38;;;;;;;;;;;;;;;;;;4969387;28;89782;-72
2024/03/26 06:35:03;;;;;;;;;;;;;;;;;;4968417;28;89542;-72
2024/03/26 06:37:29;;;;;;;;;;;;;;;;;;4973653;28;90285;-70
2024/03/26 06:39:54;;;;;;;;;;;;;;;;;;4977416;28;89628;-73
2024/03/26 06:42:19;;;;;;;;;;;;;;;;;;4970501;28;89473;-73
2024/03/26 06:44:44;;;;;;;;;;;;;;;;;;4975766;28;90097;-68
2024/03/26 06:47:10;;;;;;;;;;;;;;;;;;4972305;28;89403;-71
2024/03/26 06:49:35;;;;;;;;;;;;;;;;;;4971621;28;89675;-70
2024/03/26 06:52:02;;;;;;;;;;;;;;;;;;4971262;28;90052;-74
2024/03/26 06:54:27;;;;;;;;;;;;;;;;;;4973279;28;89549;-69
2024/03/26 06:56:52;;;;;;;;;;;;;;;;;;4976567;28;89779;-69
2024/03/26 06:59:17;;;;;;;;;;;;;;;;;;4968280;28;89488;-67
2024/03/26 07:01:43;;;;;;;;;;;;;;;;;;4971535;28;89407;-67
2024/03/26 07:04:08;;;;;;;;;;;;;;;;;;4975150;28;89556;-74
2024/03/26 07:06:33;;;;;;;;;;;;;;;;;;4978179;28;89884;-67
2024/03/26 07:08:58;;;;;;;;;;;;;;;;;;4979175;28;90077;-67
2024/03/26 07:11:24;;;;;;;;;;;;;;;;;;4968128;28;89605;-67
2024/03/26 07:13:49;;;;;;;;;;;;;;;;;;4971096;28;89546;-67
2024/03/26 07:16:14;;;;;;;;;;;;;;;;;;4973810;28;89967;-67
2024/03/26 07:18:39;;;;;;;;;;;;;;;;;;4978341;28;89493;-68
2024/03/26 07:21:05;;;;;;;;;;;;;;;;;;4971783;28;90505;-67
2024/03/26 07:23:30;;;;;;;;;;;;;;;;;;4976114;28;90280;-67
2024/03/26 07:25:55;;;;;;;;;;;;;;;;;;4975719;28;89595;-68
2024/03/26 07:28:21;;;;;;;;;;;;;;;;;;5010380;28;91474;-66
2024/03/26 07:30:46;;;;;;;;;;;;;;;;;;4969919;28;89656;-68
2024/03/26 07:33:12;;;;;;;;;;;;;;;;;;5008654;28;89196;-68
2024/03/26 07:35:37;;;;;;;;;;;;;;;;;;4968083;28;89712;-67
2024/03/26 07:38:02;;;;;;;;;;;;;;;;;;4973399;28;89821;-67
2024/03/26 07:40:28;;;;;;;;;;;;;;;;;;4978505;28;89051;-68
2024/03/26 07:42:54;;;;;;;;;;;;;;;;;;4966070;28;89376;-67
2024/03/26 07:45:21;;;;;;;;;;;;;;;;;;4973008;28;92597;-71
2024/03/26 07:47:46;;;;;;;;;;;;;;;;;;4972314;28;90337;-70
2024/03/26 07:50:11;;;;;;;;;;;;;;;;;;4973715;28;89947;-70
2024/03/26 07:52:36;;;;;;;;;;;;;;;;;;4972307;28;91699;-70
2024/03/26 07:55:02;;;;;;;;;;;;;;;;;;4972583;28;89791;-68
2024/03/26 07:57:27;;;;;;;;;;;;;;;;;;4972145;28;91789;-71
2024/03/26 07:59:52;;;;;;;;;;;;;;;;;;4972739;28;89761;-72
2024/03/26 08:02:18;;;;;;;;;;;;;;;;;;4974342;28;89729;-71
2024/03/26 08:04:43;;;;;;;;;;;;;;;;;;4975001;28;89315;-73
2024/03/26 08:07:08;;;;;;;;;;;;;;;;;;4975374;28;89500;-72
2024/03/26 08:09:34;;;;;;;;;;;;;;;;;;4977128;28;90612;-71
2024/03/26 08:11:59;;;;;;;;;;;;;;;;;;4978225;28;89987;-72
2024/03/26 08:14:24;;;;;;;;;;;;;;;;;;4973137;28;92429;-72
2024/03/26 08:16:52;;;;;;;;;;;;;;;;;;4973850;28;89683;-71
2024/03/26 08:19:18;;;;;;;;;;;;;;;;;;4973419;28;89254;-71
2024/03/26 08:21:43;;;;;;;;;;;;;;;;;;4973971;28;89715;-72
2024/03/26 08:24:08;;;;;;;;;;;;;;;;;;5000399;28;91688;-71
2024/03/26 08:26:33;;;;;;;;;;;;;;;;;;4974680;28;89787;-72
2024/03/26 08:28:59;;;;;;;;;;;;;;;;;;4969836;28;90067;-72
2024/03/26 08:31:25;;;;;;;;;;;;;;;;;;4978144;28;89495;-72
2024/03/26 08:33:50;;;;;;;;;;;;;;;;;;4973411;28;89964;-71
2024/03/26 08:36:15;;;;;;;;;;;;;;;;;;4972975;28;90274;-71
2024/03/26 08:38:41;;;;;;;;;;;;;;;;;;4976538;28;89020;-71
2024/03/26 08:41:07;;;;;;;;;;;;;;;;;;4976127;28;90417;-71
2024/03/26 08:43:32;;;;;;;;;;;;;;;;;;4974604;28;90311;-71
2024/03/26 08:45:57;;;;;;;;;;;;;;;;;;4971790;28;89547;-70
2024/03/26 08:48:22;;;;;;;;;;;;;;;;;;4976092;28;90044;-74
2024/03/26 08:50:48;;;;;;;;;;;;;;;;;;4974348;28;89660;-73
2024/03/26 08:53:13;;;;;;;;;;;;;;;;;;4977445;28;89673;-73
2024/03/26 08:55:38;;;;;;;;;;;;;;;;;;4973831;28;89563;-73
2024/03/26 08:58:03;;;;;;;;;;;;;;;;;;4973739;28;89646;-77
2024/03/26 09:00:29;;;;;;;;;;;;;;;;;;4974800;28;89762;-73
2024/03/26 09:02:54;;;;;;;;;;;;;;;;;;4974403;28;89686;-75
2024/03/26 09:05:19;;;;;;;;;;;;;;;;;;4972912;28;89693;-75
2024/03/26 09:07:44;;;;;;;;;;;;;;;;;;4974810;28;89609;-75
2024/03/26 09:10:10;;;;;;;;;;;;;;;;;;4979142;28;90587;-75
2024/03/26 09:12:35;;;;;;;;;;;;;;;;;;4976998;28;89155;-75
2024/03/26 09:15:01;;;;;;;;;;;;;;;;;;4981720;28;89644;-74
2024/03/26 09:17:26;;;;;;;;;;;;;;;;;;4977227;28;89763;-75
2024/03/26 09:19:51;;;;;;;;;;;;;;;;;;4973852;28;89465;-75
2024/03/26 09:22:16;;;;;;;;;;;;;;;;;;4972013;28;89387;-74
2024/03/26 09:24:42;;;;;;;;;;;;;;;;;;4973383;28;89418;-74
2024/03/26 09:27:07;;;;;;;;;;;;;;;;;;4973976;28;89825;-74
2024/03/26 09:29:32;;;;;;;;;;;;;;;;;;4973755;28;90934;-74
2024/03/26 09:31:57;;;;;;;;;;;;;;;;;;4972695;28;90479;-74
2024/03/26 09:34:23;;;;;;;;;;;;;;;;;;4971730;28;92634;-74
2024/03/26 09:36:49;;;;;;;;;;;;;;;;;;4976916;28;89760;-74
2024/03/26 09:39:14;;;;;;;;;;;;;;;;;;4971549;28;92622;-75
2024/03/26 09:41:39;;;;;;;;;;;;;;;;;;4973041;28;89755;-74
2024/03/26 09:44:04;;;;;;;;;;;;;;;;;;4970865;28;89703;-74
2024/03/26 09:46:30;;;;;;;;;;;;;;;;;;4967339;28;89815;-74
2024/03/26 09:48:58;;;;;;;;;;;;;;;;;;4973213;28;89552;-75
2024/03/26 09:51:24;;;;;;;;;;;;;;;;;;4965688;28;91050;-75
2024/03/26 09:53:49;;;;;;;;;;;;;;;;;;4965328;28;91199;-73
2024/03/26 09:56:16;;;;;;;;;;;;;;;;;;5000892;28;92275;-76
2024/03/26 09:58:41;;;;;;;;;;;;;;;;;;4976263;28;89667;-74
2024/03/26 10:01:07;;;;;;;;;;;;;;;;;;4964102;28;89784;-74
2024/03/26 10:03:32;;;;;;;;;;;;;;;;;;4974330;28;89467;-74
2024/03/26 10:05:58;;;;;;;;;;;;;;;;;;4973273;28;90029;-75
2024/03/26 10:08:24;;;;;;;;;;;;;;;;;;4972839;28;90075;-74
2024/03/26 10:10:49;;;;;;;;;;;;;;;;;;4975351;28;89719;-74
2024/03/26 10:13:14;;;;;;;;;;;;;;;;;;4974538;28;89729;-75
2024/03/26 10:15:39;;;;;;;;;;;;;;;;;;4973427;28;89608;-75
2024/03/26 10:18:06;;;;;;;;;;;;;;;;;;4974606;28;89660;-75
2024/03/26 10:20:31;;;;;;;;;;;;;;;;;;4965833;28;89953;-74
2024/03/26 10:22:57;;;;;;;;;;;;;;;;;;4967406;28;89767;-75
2024/03/26 10:25:22;;;;;;;;;;;;;;;;;;4966021;28;89483;-75
2024/03/26 10:27:48;;;;;;;;;;;;;;;;;;4971619;28;90976;-74
2024/03/26 10:30:14;;;;;;;;;;;;;;;;;;5001007;28;92195;-74
2024/03/26 10:32:40;;;;;;;;;;;;;;;;;;4976299;28;92990;-75
2024/03/26 10:35:07;;;;;;;;;;;;;;;;;;4975082;28;89725;-74
2024/03/26 10:37:33;;;;;;;;;;;;;;;;;;4969160;28;89556;-75
2024/03/26 10:40:11;;;;;;;;;;;;;;;;;;4970700;28;89771;-74
2024/03/26 10:42:44;;;;;;;;;;;;;;;;;;4994528;28;89586;-75
2024/03/26 10:45:09;;;;;;;;;;;;;;;;;;4993039;28;92534;-75
2024/03/26 10:47:35;;;;;;;;;;;;;;;;;;4968709;28;89699;-75
2024/03/26 10:50:00;;;;;;;;;;;;;;;;;;4975673;28;89785;-75
2024/03/26 10:52:26;;;;;;;;;;;;;;;;;;4979589;28;90169;-75
2024/03/26 10:54:51;;;;;;;;;;;;;;;;;;4980356;28;89956;-75
2024/03/26 10:57:17;;;;;;;;;;;;;;;;;;4981178;28;89184;-75
2024/03/26 10:59:42;;;;;;;;;;;;;;;;;;4974809;28;89709;-76
2024/03/26 11:02:09;;;;;;;;;;;;;;;;;;4979252;28;91873;-75
2024/03/26 11:04:34;;;;;;;;;;;;;;;;;;5006965;28;90926;-75
2024/03/26 11:07:00;;;;;;;;;;;;;;;;;;4973590;28;89922;-75
2024/03/26 11:09:25;;;;;;;;;;;;;;;;;;4981036;28;90863;-75
2024/03/26 11:11:50;;;;;;;;;;;;;;;;;;5002607;28;92534;-74
2024/03/26 11:14:15;;;;;;;;;;;;;;;;;;4975547;28;90276;-75
2024/03/26 11:16:43;;;;;;;;;;;;;;;;;;4973793;28;90855;-76
2024/03/26 11:19:19;;;;;;;;;;;;;;;;;;4978664;28;89698;-76
2024/03/26 11:21:47;;;;;;;;;;;;;;;;;;4972147;28;89766;-76
2024/03/26 11:24:22;;;;;;;;;;;;;;;;;;4979407;28;90025;-76
2024/03/26 11:26:47;;;;;;;;;;;;;;;;;;4976151;28;89800;-76
2024/03/26 11:29:13;;;;;;;;;;;;;;;;;;4976733;28;89777;-76
2024/03/26 11:31:39;;;;;;;;;;;;;;;;;;4974925;28;90032;-78
2024/03/26 11:34:05;;;;;;;;;;;;;;;;;;4979544;28;92086;-77
2024/03/26 11:36:31;;;;;;;;;;;;;;;;;;4975440;28;90801;-77
2024/03/26 11:38:56;;;;;;;;;;;;;;;;;;4975632;28;91282;-77
2024/03/26 11:41:22;;;;;;;;;;;;;;;;;;4973751;28;90122;-75
2024/03/26 11:43:48;;;;;;;;;;;;;;;;;;4976389;28;89333;-75
2024/03/26 11:46:13;;;;;;;;;;;;;;;;;;4977167;28;90123;-75
2024/03/26 11:48:38;;;;;;;;;;;;;;;;;;4965073;28;89722;-75
2024/03/26 11:51:04;;;;;;;;;;;;;;;;;;4968180;28;90433;-75
2024/03/26 11:53:29;;;;;;;;;;;;;;;;;;4964634;28;90691;-74
2024/03/26 11:55:54;;;;;;;;;;;;;;;;;;4963327;28;90610;-75
2024/03/26 11:58:25;;;;;;;;;;;;;;;;;;4972499;28;90098;-75
2024/03/26 12:00:50;;;;;;;;;;;;;;;;;;4967889;28;90333;-74
2024/03/26 12:03:16;;;;;;;;;;;;;;;;;;4996660;28;90209;-75
2024/03/26 12:05:41;;;;;;;;;;;;;;;;;;4966848;28;92338;-74
2024/03/26 12:08:06;;;;;;;;;;;;;;;;;;4972158;28;91050;-75
2024/03/26 12:10:32;;;;;;;;;;;;;;;;;;4964057;28;92259;-75
2024/03/26 12:12:57;;;;;;;;;;;;;;;;;;4969738;28;89689;-75
2024/03/26 12:15:22;;;;;;;;;;;;;;;;;;4969512;28;89112;-75
2024/03/26 12:17:47;;;;;;;;;;;;;;;;;;4968423;28;92498;-75
2024/03/26 12:20:13;;;;;;;;;;;;;;;;;;4967960;28;89580;-75
2024/03/26 12:22:41;;;;;;;;;;;;;;;;;;4969345;28;89748;-75
2024/03/26 12:25:07;;;;;;;;;;;;;;;;;;4967407;28;90117;-75
2024/03/26 12:27:35;;;;;;;;;;;;;;;;;;4979901;28;90010;-75
2024/03/26 12:30:01;;;;;;;;;;;;;;;;;;4977893;28;90266;-75
2024/03/26 12:32:26;;;;;;;;;;;;;;;;;;4972883;28;89649;-75
2024/03/26 12:34:51;;;;;;;;;;;;;;;;;;5005787;28;89557;-74
2024/03/26 12:37:17;;;;;;;;;;;;;;;;;;4970458;28;91191;-75
2024/03/26 12:39:42;;;;;;;;;;;;;;;;;;4978089;28;89305;-75
2024/03/26 12:42:08;;;;;;;;;;;;;;;;;;4975319;28;89393;-74
2024/03/26 12:44:33;;;;;;;;;;;;;;;;;;4966190;28;89756;-75
2024/03/26 12:46:58;;;;;;;;;;;;;;;;;;4974515;28;89725;-74
2024/03/26 12:49:24;;;;;;;;;;;;;;;;;;4976416;28;89470;-75
2024/03/26 12:51:54;;;;;;;;;;;;;;;;;;4978344;28;89956;-73
2024/03/26 12:54:19;;;;;;;;;;;;;;;;;;4961785;28;89433;-75
2024/03/26 12:56:45;;;;;;;;;;;;;;;;;;4965744;28;89509;-75
2024/03/26 12:59:10;;;;;;;;;;;;;;;;;;4968619;28;90013;-75
2024/03/26 13:01:35;;;;;;;;;;;;;;;;;;4974201;28;89988;-75
2024/03/26 13:04:00;;;;;;;;;;;;;;;;;;4974466;28;89723;-75
2024/03/26 13:06:26;;;;;;;;;;;;;;;;;;4974125;28;89340;-75
2024/03/26 13:08:51;;;;;;;;;;;;;;;;;;4975910;28;90006;-75
2024/03/26 13:11:17;;;;;;;;;;;;;;;;;;4974691;28;91213;-75
2024/03/26 13:13:43;;;;;;;;;;;;;;;;;;4974106;28;88947;-75
2024/03/26 13:16:08;;;;;;;;;;;;;;;;;;5007006;28;92716;-75
2024/03/26 13:18:35;;;;;;;;;;;;;;;;;;4999978;28;92339;-75
2024/03/26 13:21:00;;;;;;;;;;;;;;;;;;4968716;28;89423;-75
2024/03/26 13:23:26;;;;;;;;;;;;;;;;;;4966698;28;90126;-75
2024/03/26 13:25:51;;;;;;;;;;;;;;;;;;4972691;28;92753;-75
2024/03/26 13:28:16;;;;;;;;;;;;;;;;;;4974978;28;89091;-76
2024/03/26 13:30:41;;;;;;;;;;;;;;;;;;4987867;28;91955;-75
2024/03/26 13:33:07;;;;;;;;;;;;;;;;;;4974157;28;89391;-75
2024/03/26 13:35:32;;;;;;;;;;;;;;;;;;4977227;28;90201;-75
2024/03/26 13:37:57;;;;;;;;;;;;;;;;;;4973295;28;89431;-75
2024/03/26 13:40:22;;;;;;;;;;;;;;;;;;4972947;28;90189;-75
2024/03/26 13:42:48;;;;;;;;;;;;;;;;;;4973543;28;92014;-76
2024/03/26 13:45:13;;;;;;;;;;;;;;;;;;5005518;28;89881;-75
2024/03/26 13:47:38;;;;;;;;;;;;;;;;;;4977044;28;89603;-75
2024/03/26 13:50:04;;;;;;;;;;;;;;;;;;4975336;28;90032;-76
2024/03/26 13:52:30;;;;;;;;;;;;;;;;;;4976337;28;89055;-75
2024/03/26 13:54:57;;;;;;;;;;;;;;;;;;4974728;28;89543;-75
2024/03/26 13:57:22;;;;;;;;;;;;;;;;;;4975467;28;89142;-76
2024/03/26 13:59:47;;;;;;;;;;;;;;;;;;4983985;28;89276;-75
2024/03/26 14:02:12;;;;;;;;;;;;;;;;;;4976600;28;90035;-75
2024/03/26 14:04:38;;;;;;;;;;;;;;;;;;5009708;28;91894;-75
2024/03/26 14:07:03;;;;;;;;;;;;;;;;;;5000613;28;90200;-76
2024/03/26 14:09:29;;;;;;;;;;;;;;;;;;4969186;28;90685;-76
2024/03/26 14:11:55;;;;;;;;;;;;;;;;;;4976713;28;89550;-75
2024/03/26 14:14:21;;;;;;;;;;;;;;;;;;4974975;28;89438;-76
2024/03/26 14:16:46;;;;;;;;;;;;;;;;;;4978286;28;89747;-76
2024/03/26 14:19:11;;;;;;;;;;;;;;;;;;4975648;28;89270;-75
2024/03/26 14:21:37;;;;;;;;;;;;;;;;;;4976726;28;89669;-76
2024/03/26 14:24:02;;;;;;;;;;;;;;;;;;4977703;28;89960;-76
2024/03/26 14:26:28;;;;;;;;;;;;;;;;;;4981303;28;89031;-75
2024/03/26 14:28:53;;;;;;;;;;;;;;;;;;4975366;28;89463;-75
2024/03/26 14:31:23;;;;;;;;;;;;;;;;;;4975843;28;89606;-75
2024/03/26 14:33:48;;;;;;;;;;;;;;;;;;4976660;28;89401;-77
2024/03/26 14:36:13;;;;;;;;;;;;;;;;;;4975294;28;90074;-75
2024/03/26 14:38:38;;;;;;;;;;;;;;;;;;4982472;28;89517;-76
2024/03/26 14:41:05;;;;;;;;;;;;;;;;;;4969657;28;89671;-75
2024/03/26 14:43:30;;;;;;;;;;;;;;;;;;5005829;28;91977;-75
2024/03/26 14:45:55;;;;;;;;;;;;;;;;;;4981242;28;89349;-76
2024/03/26 14:48:20;;;;;;;;;;;;;;;;;;4980720;28;90170;-75
2024/03/26 14:50:51;;;;;;;;;;;;;;;;;;5006647;28;92095;-75
2024/03/26 14:53:17;;;;;;;;;;;;;;;;;;4973078;28;89190;-75
2024/03/26 14:55:42;;;;;;;;;;;;;;;;;;4976586;28;89584;-75
2024/03/26 14:58:07;;;;;;;;;;;;;;;;;;5005766;28;91512;-75
2024/03/26 15:00:32;;;;;;;;;;;;;;;;;;4971162;28;90845;-75
2024/03/26 15:02:57;;;;;;;;;;;;;;;;;;4967440;28;89621;-75
2024/03/26 15:05:23;;;;;;;;;;;;;;;;;;4971537;28;89591;-75
2024/03/26 15:07:48;;;;;;;;;;;;;;;;;;4973326;28;89478;-75
2024/03/26 15:10:13;;;;;;;;;;;;;;;;;;4980795;28;91422;-74
2024/03/26 15:12:39;;;;;;;;;;;;;;;;;;4977152;28;89501;-75
2024/03/26 15:15:04;;;;;;;;;;;;;;;;;;4977140;28;91232;-75
2024/03/26 15:17:29;;;;;;;;;;;;;;;;;;4977232;28;89401;-74
2024/03/26 15:19:55;;;;;;;;;;;;;;;;;;5012641;28;90376;-75
2024/03/26 15:22:20;;;;;;;;;;;;;;;;;;4972662;28;89585;-75
2024/03/26 15:24:45;;;;;;;;;;;;;;;;;;4977182;28;89559;-76
2024/03/26 15:32:22;;;;;;;;;;;;;;;;;;4970987;28;89123;-75
2024/03/26 15:34:48;;;;;;;;;;;;;;;;;;4970285;28;90116;-74
2024/03/26 15:37:13;;;;;;;;;;;;;;;;;;4965547;28;90848;-75
2024/03/26 15:39:39;;;;;;;;;;;;;;;;;;4969184;28;89899;-73
2024/03/26 15:42:05;;;;;;;;;;;;;;;;;;4973760;28;89916;-74
2024/03/26 15:44:34;;;;;;;;;;;;;;;;;;4965651;28;90413;-75
2024/03/26 15:46:59;;;;;;;;;;;;;;;;;;4967296;28;89759;-75
2024/03/26 15:49:25;;;;;;;;;;;;;;;;;;4968408;28;89508;-75
2024/03/26 15:51:50;;;;;;;;;;;;;;;;;;4968239;28;90250;-75
2024/03/26 15:54:20;;;;;;;;;;;;;;;;;;4966599;28;90619;-75
2024/03/26 15:56:45;;;;;;;;;;;;;;;;;;4968009;28;89804;-74
2024/03/26 15:59:12;;;;;;;;;;;;;;;;;;4968267;28;90262;-75
2024/03/26 16:01:37;;;;;;;;;;;;;;;;;;4963017;28;90960;-75
2024/03/26 16:04:05;;;;;;;;;;;;;;;;;;4971922;28;89413;-74
2024/03/26 16:06:31;;;;;;;;;;;;;;;;;;4967914;28;92201;-74
2024/03/26 16:08:56;;;;;;;;;;;;;;;;;;4965812;28;90996;-75
2024/03/26 16:11:24;;;;;;;;;;;;;;;;;;4970953;28;90254;-75
2024/03/26 16:13:50;;;;;;;;;;;;;;;;;;4967821;28;89722;-74
2024/03/26 16:16:15;;;;;;;;;;;;;;;;;;4968148;28;89852;-75
2024/03/26 16:18:40;;;;;;;;;;;;;;;;;;4969686;28;89655;-74
2024/03/26 16:21:06;;;;;;;;;;;;;;;;;;4972892;28;92706;-75
2024/03/26 16:23:31;;;;;;;;;;;;;;;;;;4974483;28;89751;-75
2024/03/26 16:25:56;;;;;;;;;;;;;;;;;;4968717;28;89562;-75
2024/03/26 16:28:22;;;;;;;;;;;;;;;;;;4971657;28;90379;-75
2024/03/26 16:30:48;;;;;;;;;;;;;;;;;;4970934;28;89484;-74
2024/03/26 16:33:13;;;;;;;;;;;;;;;;;;4975134;28;89453;-75
2024/03/26 16:35:38;;;;;;;;;;;;;;;;;;4969617;28;89663;-75
2024/03/26 16:38:04;;;;;;;;;;;;;;;;;;4973049;28;89200;-74